sensor_id;sensor_type;location;lat;lon;timestamp;temperature;humidity
13164;DHT22;6647;53.688;10.746;2022-08-18T00:00:22;21.40;1.00
13164;DHT22;6647;53.688;10.746;2022-08-18T00:01:46;21.40;1.00
13164;DHT22;6647;53.688;10.746;2022-08-18T00:03:09;21.30;1.00
13164;DHT22;6647;53.688;10.746;2022-08-18T00:04:32;21.30;1.00
13164;DHT22;6647;53.688;10.746;2022-08-18T00:05:54;21.30;1.00
13164;DHT22;6647;53.688;10.746;2022-08-18T00:07:24;21.30;1.00
13164;DHT22;6647;53.688;10.746;2022-08-18T00:08:45;21.30;1.00
13164;DHT22;6647;53.688;10.746;2022-08-18T00:10:06;21.30;1.00
13164;DHT22;6647;53.688;10.746;2022-08-18T00:11:30;21.30;1.00
13164;DHT22;6647;53.688;10.746;2022-08-18T00:12:51;21.30;1.00
13164;DHT22;6647;53.688;10.746;2022-08-18T00:14:17;21.30;1.00
13164;DHT22;6647;53.688;10.746;2022-08-18T00:15:38;21.30;1.00
13164;DHT22;6647;53.688;10.746;2022-08-18T00:16:59;21.20;1.00
13164;DHT22;6647;53.688;10.746;2022-08-18T00:18:20;21.30;1.00
13164;DHT22;6647;53.688;10.746;2022-08-18T00:19:41;21.30;1.00
13164;DHT22;6647;53.688;10.746;2022-08-18T00:21:02;21.30;1.00
13164;DHT22;6647;53.688;10.746;2022-08-18T00:22:23;21.30;1.00
13164;DHT22;6647;53.688;10.746;2022-08-18T00:23:44;21.20;1.00
13164;DHT22;6647;53.688;10.746;2022-08-18T00:25:06;21.20;1.00
13164;DHT22;6647;53.688;10.746;2022-08-18T00:26:29;21.20;1.00
13164;DHT22;6647;53.688;10.746;2022-08-18T00:27:50;21.20;1.00
13164;DHT22;6647;53.688;10.746;2022-08-18T00:29:11;21.20;1.00
13164;DHT22;6647;53.688;10.746;2022-08-18T00:30:32;21.20;1.00
13164;DHT22;6647;53.688;10.746;2022-08-18T00:31:53;21.20;1.00
13164;DHT22;6647;53.688;10.746;2022-08-18T00:33:14;21.20;1.00
13164;DHT22;6647;53.688;10.746;2022-08-18T00:34:35;21.20;1.00
13164;DHT22;6647;53.688;10.746;2022-08-18T00:35:55;21.20;1.00
13164;DHT22;6647;53.688;10.746;2022-08-18T00:37:16;21.20;1.00
13164;DHT22;6647;53.688;10.746;2022-08-18T00:38:38;21.20;1.00
13164;DHT22;6647;53.688;10.746;2022-08-18T00:39:59;21.20;1.00
13164;DHT22;6647;53.688;10.746;2022-08-18T00:41:20;21.10;1.00
13164;DHT22;6647;53.688;10.746;2022-08-18T00:42:47;21.10;1.00
13164;DHT22;6647;53.688;10.746;2022-08-18T00:44:08;21.10;1.00
13164;DHT22;6647;53.688;10.746;2022-08-18T00:45:38;21.00;1.00
13164;DHT22;6647;53.688;10.746;2022-08-18T00:47:00;21.00;1.00
13164;DHT22;6647;53.688;10.746;2022-08-18T00:48:20;21.00;1.00
13164;DHT22;6647;53.688;10.746;2022-08-18T00:49:43;21.00;1.00
13164;DHT22;6647;53.688;10.746;2022-08-18T00:51:12;21.00;1.00
13164;DHT22;6647;53.688;10.746;2022-08-18T00:52:35;21.00;1.00
13164;DHT22;6647;53.688;10.746;2022-08-18T00:54:05;20.90;1.00
13164;DHT22;6647;53.688;10.746;2022-08-18T00:55:27;20.90;1.00
13164;DHT22;6647;53.688;10.746;2022-08-18T00:56:52;20.90;1.00
13164;DHT22;6647;53.688;10.746;2022-08-18T00:58:21;20.90;1.00
13164;DHT22;6647;53.688;10.746;2022-08-18T01:00:03;20.90;1.00
13164;DHT22;6647;53.688;10.746;2022-08-18T01:01:32;20.80;1.00
13164;DHT22;6647;53.688;10.746;2022-08-18T01:02:56;20.80;1.00
13164;DHT22;6647;53.688;10.746;2022-08-18T01:04:26;20.80;1.00
13164;DHT22;6647;53.688;10.746;2022-08-18T01:06:16;20.80;1.00
13164;DHT22;6647;53.688;10.746;2022-08-18T01:07:43;20.80;1.00
13164;DHT22;6647;53.688;10.746;2022-08-18T01:09:06;20.80;1.00
13164;DHT22;6647;53.688;10.746;2022-08-18T01:10:28;20.80;1.00
13164;DHT22;6647;53.688;10.746;2022-08-18T01:11:52;20.80;1.00
13164;DHT22;6647;53.688;10.746;2022-08-18T01:13:13;20.80;1.00
13164;DHT22;6647;53.688;10.746;2022-08-18T01:14:34;20.70;1.00
13164;DHT22;6647;53.688;10.746;2022-08-18T01:15:55;20.70;1.00
13164;DHT22;6647;53.688;10.746;2022-08-18T01:17:16;20.70;1.00
13164;DHT22;6647;53.688;10.746;2022-08-18T01:18:55;20.70;1.00
13164;DHT22;6647;53.688;10.746;2022-08-18T01:20:44;20.60;1.00
13164;DHT22;6647;53.688;10.746;2022-08-18T01:22:35;20.60;1.00
13164;DHT22;6647;53.688;10.746;2022-08-18T01:23:57;20.60;1.00
13164;DHT22;6647;53.688;10.746;2022-08-18T01:25:20;20.50;1.00
13164;DHT22;6647;53.688;10.746;2022-08-18T01:27:00;20.50;1.00
13164;DHT22;6647;53.688;10.746;2022-08-18T01:28:21;20.50;1.00
13164;DHT22;6647;53.688;10.746;2022-08-18T01:29:48;20.50;1.00
13164;DHT22;6647;53.688;10.746;2022-08-18T01:31:10;20.50;1.00
13164;DHT22;6647;53.688;10.746;2022-08-18T01:32:31;20.50;1.00
13164;DHT22;6647;53.688;10.746;2022-08-18T01:33:52;20.50;1.00
13164;DHT22;6647;53.688;10.746;2022-08-18T01:35:14;20.50;1.00
13164;DHT22;6647;53.688;10.746;2022-08-18T01:36:38;20.50;1.00
13164;DHT22;6647;53.688;10.746;2022-08-18T01:38:00;20.50;1.00
13164;DHT22;6647;53.688;10.746;2022-08-18T01:39:21;20.50;1.00
13164;DHT22;6647;53.688;10.746;2022-08-18T01:40:42;20.50;1.00
13164;DHT22;6647;53.688;10.746;2022-08-18T01:42:03;20.50;1.00
13164;DHT22;6647;53.688;10.746;2022-08-18T01:43:25;20.50;1.00
13164;DHT22;6647;53.688;10.746;2022-08-18T01:44:47;20.50;1.00
13164;DHT22;6647;53.688;10.746;2022-08-18T01:46:11;20.50;1.00
13164;DHT22;6647;53.688;10.746;2022-08-18T01:47:32;20.40;1.00
13164;DHT22;6647;53.688;10.746;2022-08-18T01:48:54;20.50;1.00
13164;DHT22;6647;53.688;10.746;2022-08-18T01:50:16;20.50;1.00
13164;DHT22;6647;53.688;10.746;2022-08-18T01:51:37;20.50;1.00
13164;DHT22;6647;53.688;10.746;2022-08-18T01:53:02;20.50;1.00
13164;DHT22;6647;53.688;10.746;2022-08-18T01:54:25;20.40;1.00
13164;DHT22;6647;53.688;10.746;2022-08-18T01:55:49;20.40;1.00
13164;DHT22;6647;53.688;10.746;2022-08-18T01:57:11;20.40;1.00
13164;DHT22;6647;53.688;10.746;2022-08-18T01:58:35;20.40;1.00
13164;DHT22;6647;53.688;10.746;2022-08-18T01:59:56;20.40;1.00
13164;DHT22;6647;53.688;10.746;2022-08-18T02:01:22;20.40;1.00
13164;DHT22;6647;53.688;10.746;2022-08-18T02:02:44;20.40;1.00
13164;DHT22;6647;53.688;10.746;2022-08-18T02:04:07;20.40;1.00
13164;DHT22;6647;53.688;10.746;2022-08-18T02:05:35;20.40;1.00
13164;DHT22;6647;53.688;10.746;2022-08-18T02:06:56;20.40;1.00
13164;DHT22;6647;53.688;10.746;2022-08-18T02:08:17;20.40;1.00
13164;DHT22;6647;53.688;10.746;2022-08-18T02:09:39;20.40;1.00
13164;DHT22;6647;53.688;10.746;2022-08-18T02:11:01;20.40;1.00
13164;DHT22;6647;53.688;10.746;2022-08-18T02:12:23;20.50;1.00
13164;DHT22;6647;53.688;10.746;2022-08-18T02:13:43;20.40;1.00
13164;DHT22;6647;53.688;10.746;2022-08-18T02:15:05;20.40;1.00
13164;DHT22;6647;53.688;10.746;2022-08-18T02:16:27;20.40;1.00
13164;DHT22;6647;53.688;10.746;2022-08-18T02:17:49;20.50;1.00
13164;DHT22;6647;53.688;10.746;2022-08-18T02:19:10;20.50;1.00
13164;DHT22;6647;53.688;10.746;2022-08-18T02:20:32;20.40;1.00
13164;DHT22;6647;53.688;10.746;2022-08-18T02:21:52;20.40;1.00
13164;DHT22;6647;53.688;10.746;2022-08-18T02:23:14;20.40;1.00
13164;DHT22;6647;53.688;10.746;2022-08-18T02:24:35;20.40;1.00
13164;DHT22;6647;53.688;10.746;2022-08-18T02:25:56;20.40;1.00
13164;DHT22;6647;53.688;10.746;2022-08-18T02:27:17;20.40;1.00
13164;DHT22;6647;53.688;10.746;2022-08-18T02:28:38;20.40;1.00
13164;DHT22;6647;53.688;10.746;2022-08-18T02:30:02;20.30;1.00
13164;DHT22;6647;53.688;10.746;2022-08-18T02:31:24;20.30;1.00
13164;DHT22;6647;53.688;10.746;2022-08-18T02:32:45;20.30;1.00
13164;DHT22;6647;53.688;10.746;2022-08-18T02:34:06;20.40;1.00
13164;DHT22;6647;53.688;10.746;2022-08-18T02:35:26;20.40;1.00
13164;DHT22;6647;53.688;10.746;2022-08-18T02:36:47;20.40;1.00
13164;DHT22;6647;53.688;10.746;2022-08-18T02:38:08;20.40;1.00
13164;DHT22;6647;53.688;10.746;2022-08-18T02:39:29;20.30;1.00
13164;DHT22;6647;53.688;10.746;2022-08-18T02:40:57;20.30;1.00
13164;DHT22;6647;53.688;10.746;2022-08-18T02:42:19;20.30;1.00
13164;DHT22;6647;53.688;10.746;2022-08-18T02:43:41;20.30;1.00
13164;DHT22;6647;53.688;10.746;2022-08-18T02:45:02;20.30;1.00
13164;DHT22;6647;53.688;10.746;2022-08-18T02:46:23;20.30;1.00
13164;DHT22;6647;53.688;10.746;2022-08-18T02:47:44;20.30;1.00
13164;DHT22;6647;53.688;10.746;2022-08-18T02:49:11;20.30;1.00
13164;DHT22;6647;53.688;10.746;2022-08-18T02:50:32;20.30;1.00
13164;DHT22;6647;53.688;10.746;2022-08-18T02:51:53;20.30;1.00
13164;DHT22;6647;53.688;10.746;2022-08-18T02:53:15;20.30;1.00
13164;DHT22;6647;53.688;10.746;2022-08-18T02:54:42;20.30;1.00
13164;DHT22;6647;53.688;10.746;2022-08-18T02:56:09;20.30;1.00
13164;DHT22;6647;53.688;10.746;2022-08-18T02:57:45;20.30;1.00
13164;DHT22;6647;53.688;10.746;2022-08-18T02:59:09;20.30;1.00
13164;DHT22;6647;53.688;10.746;2022-08-18T03:00:30;20.30;1.00
13164;DHT22;6647;53.688;10.746;2022-08-18T03:01:52;20.30;1.00
13164;DHT22;6647;53.688;10.746;2022-08-18T03:03:13;20.30;1.00
13164;DHT22;6647;53.688;10.746;2022-08-18T03:04:35;20.30;1.00
13164;DHT22;6647;53.688;10.746;2022-08-18T03:05:56;20.20;1.00
13164;DHT22;6647;53.688;10.746;2022-08-18T03:07:16;20.20;1.00
13164;DHT22;6647;53.688;10.746;2022-08-18T03:08:37;20.20;1.00
13164;DHT22;6647;53.688;10.746;2022-08-18T03:09:58;20.20;1.00
13164;DHT22;6647;53.688;10.746;2022-08-18T03:11:22;20.20;1.00
13164;DHT22;6647;53.688;10.746;2022-08-18T03:12:44;20.20;1.00
13164;DHT22;6647;53.688;10.746;2022-08-18T03:14:05;20.20;1.00
13164;DHT22;6647;53.688;10.746;2022-08-18T03:15:26;20.20;1.00
13164;DHT22;6647;53.688;10.746;2022-08-18T03:16:48;20.20;1.00
13164;DHT22;6647;53.688;10.746;2022-08-18T03:18:09;20.20;1.00
13164;DHT22;6647;53.688;10.746;2022-08-18T03:19:32;20.20;1.00
13164;DHT22;6647;53.688;10.746;2022-08-18T03:20:52;20.20;1.00
13164;DHT22;6647;53.688;10.746;2022-08-18T03:22:13;20.20;1.00
13164;DHT22;6647;53.688;10.746;2022-08-18T03:23:35;20.20;1.00
13164;DHT22;6647;53.688;10.746;2022-08-18T03:24:56;20.20;1.00
13164;DHT22;6647;53.688;10.746;2022-08-18T03:26:19;20.30;1.00
13164;DHT22;6647;53.688;10.746;2022-08-18T03:27:40;20.30;1.00
13164;DHT22;6647;53.688;10.746;2022-08-18T03:29:01;20.30;1.00
13164;DHT22;6647;53.688;10.746;2022-08-18T03:30:22;20.30;1.00
13164;DHT22;6647;53.688;10.746;2022-08-18T03:31:43;20.20;1.00
13164;DHT22;6647;53.688;10.746;2022-08-18T03:33:05;20.20;1.00
13164;DHT22;6647;53.688;10.746;2022-08-18T03:34:25;20.20;1.00
13164;DHT22;6647;53.688;10.746;2022-08-18T03:35:46;20.30;1.00
13164;DHT22;6647;53.688;10.746;2022-08-18T03:37:07;20.20;1.00
13164;DHT22;6647;53.688;10.746;2022-08-18T03:38:28;20.20;1.00
13164;DHT22;6647;53.688;10.746;2022-08-18T03:39:49;20.20;1.00
13164;DHT22;6647;53.688;10.746;2022-08-18T03:41:14;20.20;1.00
13164;DHT22;6647;53.688;10.746;2022-08-18T03:42:36;20.20;1.00
13164;DHT22;6647;53.688;10.746;2022-08-18T03:43:57;20.20;1.00
13164;DHT22;6647;53.688;10.746;2022-08-18T03:45:17;20.20;1.00
13164;DHT22;6647;53.688;10.746;2022-08-18T03:46:43;20.20;1.00
13164;DHT22;6647;53.688;10.746;2022-08-18T03:48:04;20.20;1.00
13164;DHT22;6647;53.688;10.746;2022-08-18T03:49:25;20.20;1.00
13164;DHT22;6647;53.688;10.746;2022-08-18T03:50:46;20.20;1.00
13164;DHT22;6647;53.688;10.746;2022-08-18T03:52:08;20.10;1.00
13164;DHT22;6647;53.688;10.746;2022-08-18T03:53:29;20.10;1.00
13164;DHT22;6647;53.688;10.746;2022-08-18T03:54:52;20.10;1.00
13164;DHT22;6647;53.688;10.746;2022-08-18T03:56:20;20.10;1.00
13164;DHT22;6647;53.688;10.746;2022-08-18T03:57:42;20.10;1.00
13164;DHT22;6647;53.688;10.746;2022-08-18T03:59:07;20.10;1.00
13164;DHT22;6647;53.688;10.746;2022-08-18T04:00:31;20.00;1.00
13164;DHT22;6647;53.688;10.746;2022-08-18T04:01:53;20.00;1.00
13164;DHT22;6647;53.688;10.746;2022-08-18T04:03:14;20.00;1.00
13164;DHT22;6647;53.688;10.746;2022-08-18T04:04:35;20.00;1.00
13164;DHT22;6647;53.688;10.746;2022-08-18T04:05:56;20.10;1.00
13164;DHT22;6647;53.688;10.746;2022-08-18T04:07:17;20.10;1.00
13164;DHT22;6647;53.688;10.746;2022-08-18T04:08:38;20.10;1.00
13164;DHT22;6647;53.688;10.746;2022-08-18T04:09:59;20.10;1.00
13164;DHT22;6647;53.688;10.746;2022-08-18T04:11:20;20.20;1.00
13164;DHT22;6647;53.688;10.746;2022-08-18T04:12:41;20.20;1.00
13164;DHT22;6647;53.688;10.746;2022-08-18T04:14:03;20.10;1.00
13164;DHT22;6647;53.688;10.746;2022-08-18T04:15:24;20.20;1.00
13164;DHT22;6647;53.688;10.746;2022-08-18T04:16:45;20.20;1.00
13164;DHT22;6647;53.688;10.746;2022-08-18T04:18:07;20.20;1.00
13164;DHT22;6647;53.688;10.746;2022-08-18T04:19:28;20.20;1.00
13164;DHT22;6647;53.688;10.746;2022-08-18T04:20:50;20.20;1.00
13164;DHT22;6647;53.688;10.746;2022-08-18T04:22:11;20.20;1.00
13164;DHT22;6647;53.688;10.746;2022-08-18T04:23:32;20.20;1.00
13164;DHT22;6647;53.688;10.746;2022-08-18T04:24:53;20.20;1.00
13164;DHT22;6647;53.688;10.746;2022-08-18T04:26:15;20.10;1.00
13164;DHT22;6647;53.688;10.746;2022-08-18T04:27:38;20.10;1.00
13164;DHT22;6647;53.688;10.746;2022-08-18T04:29:03;20.10;1.00
13164;DHT22;6647;53.688;10.746;2022-08-18T04:30:24;20.10;1.00
13164;DHT22;6647;53.688;10.746;2022-08-18T04:31:46;20.10;1.00
13164;DHT22;6647;53.688;10.746;2022-08-18T04:33:07;20.10;1.00
13164;DHT22;6647;53.688;10.746;2022-08-18T04:34:28;20.10;1.00
13164;DHT22;6647;53.688;10.746;2022-08-18T04:35:49;20.10;1.00
13164;DHT22;6647;53.688;10.746;2022-08-18T04:37:10;20.10;1.00
13164;DHT22;6647;53.688;10.746;2022-08-18T04:38:31;20.10;1.00
13164;DHT22;6647;53.688;10.746;2022-08-18T04:39:52;20.10;1.00
13164;DHT22;6647;53.688;10.746;2022-08-18T04:41:13;20.10;1.00
13164;DHT22;6647;53.688;10.746;2022-08-18T04:42:34;20.10;1.00
13164;DHT22;6647;53.688;10.746;2022-08-18T04:44:01;20.10;1.00
13164;DHT22;6647;53.688;10.746;2022-08-18T04:45:22;20.10;1.00
13164;DHT22;6647;53.688;10.746;2022-08-18T04:46:47;20.10;1.00
13164;DHT22;6647;53.688;10.746;2022-08-18T04:48:08;20.10;1.00
13164;DHT22;6647;53.688;10.746;2022-08-18T04:49:29;20.00;1.00
13164;DHT22;6647;53.688;10.746;2022-08-18T04:50:51;20.00;1.00
13164;DHT22;6647;53.688;10.746;2022-08-18T04:52:12;20.00;1.00
13164;DHT22;6647;53.688;10.746;2022-08-18T04:53:52;20.00;1.00
13164;DHT22;6647;53.688;10.746;2022-08-18T04:55:13;20.10;1.00
13164;DHT22;6647;53.688;10.746;2022-08-18T04:56:38;20.10;1.00
13164;DHT22;6647;53.688;10.746;2022-08-18T04:57:59;20.10;1.00
13164;DHT22;6647;53.688;10.746;2022-08-18T04:59:20;20.10;1.00
13164;DHT22;6647;53.688;10.746;2022-08-18T05:00:41;20.10;1.00
13164;DHT22;6647;53.688;10.746;2022-08-18T05:02:03;20.10;1.00
13164;DHT22;6647;53.688;10.746;2022-08-18T05:03:28;20.10;1.00
13164;DHT22;6647;53.688;10.746;2022-08-18T05:04:48;20.10;1.00
13164;DHT22;6647;53.688;10.746;2022-08-18T05:06:09;20.10;1.00
13164;DHT22;6647;53.688;10.746;2022-08-18T05:07:31;20.10;1.00
13164;DHT22;6647;53.688;10.746;2022-08-18T05:09:04;20.10;1.00
13164;DHT22;6647;53.688;10.746;2022-08-18T05:10:25;20.10;1.00
13164;DHT22;6647;53.688;10.746;2022-08-18T05:11:46;20.20;1.00
13164;DHT22;6647;53.688;10.746;2022-08-18T05:13:07;20.10;1.00
13164;DHT22;6647;53.688;10.746;2022-08-18T05:14:28;20.10;1.00
13164;DHT22;6647;53.688;10.746;2022-08-18T05:15:54;20.10;1.00
13164;DHT22;6647;53.688;10.746;2022-08-18T05:17:16;20.20;1.00
13164;DHT22;6647;53.688;10.746;2022-08-18T05:18:37;20.20;1.00
13164;DHT22;6647;53.688;10.746;2022-08-18T05:19:59;20.20;1.00
13164;DHT22;6647;53.688;10.746;2022-08-18T05:21:23;20.20;1.00
13164;DHT22;6647;53.688;10.746;2022-08-18T05:22:44;20.20;1.00
13164;DHT22;6647;53.688;10.746;2022-08-18T05:24:05;20.30;1.00
13164;DHT22;6647;53.688;10.746;2022-08-18T05:25:27;20.30;1.00
13164;DHT22;6647;53.688;10.746;2022-08-18T05:26:50;20.30;1.00
13164;DHT22;6647;53.688;10.746;2022-08-18T05:28:12;20.30;1.00
13164;DHT22;6647;53.688;10.746;2022-08-18T05:29:34;20.30;1.00
13164;DHT22;6647;53.688;10.746;2022-08-18T05:30:58;20.30;1.00
13164;DHT22;6647;53.688;10.746;2022-08-18T05:32:19;20.40;1.00
13164;DHT22;6647;53.688;10.746;2022-08-18T05:33:40;20.40;1.00
13164;DHT22;6647;53.688;10.746;2022-08-18T05:35:11;20.40;1.00
13164;DHT22;6647;53.688;10.746;2022-08-18T05:38:39;20.40;1.00
13164;DHT22;6647;53.688;10.746;2022-08-18T05:40:05;20.40;1.00
13164;DHT22;6647;53.688;10.746;2022-08-18T05:41:34;20.50;1.00
13164;DHT22;6647;53.688;10.746;2022-08-18T05:42:57;20.50;1.00
13164;DHT22;6647;53.688;10.746;2022-08-18T05:44:24;20.50;1.00
13164;DHT22;6647;53.688;10.746;2022-08-18T05:45:48;20.50;1.00
13164;DHT22;6647;53.688;10.746;2022-08-18T05:47:25;20.50;1.00
13164;DHT22;6647;53.688;10.746;2022-08-18T05:48:47;20.50;1.00
13164;DHT22;6647;53.688;10.746;2022-08-18T05:50:13;20.50;1.00
13164;DHT22;6647;53.688;10.746;2022-08-18T05:51:42;20.50;1.00
13164;DHT22;6647;53.688;10.746;2022-08-18T05:53:08;20.50;1.00
13164;DHT22;6647;53.688;10.746;2022-08-18T05:54:53;20.50;1.00
13164;DHT22;6647;53.688;10.746;2022-08-18T05:56:36;20.50;1.00
13164;DHT22;6647;53.688;10.746;2022-08-18T05:58:25;20.50;1.00
13164;DHT22;6647;53.688;10.746;2022-08-18T05:59:51;20.60;1.00
13164;DHT22;6647;53.688;10.746;2022-08-18T06:01:17;20.60;1.00
13164;DHT22;6647;53.688;10.746;2022-08-18T06:02:45;20.60;1.00
13164;DHT22;6647;53.688;10.746;2022-08-18T06:04:21;20.60;1.00
13164;DHT22;6647;53.688;10.746;2022-08-18T06:05:48;20.60;1.00
13164;DHT22;6647;53.688;10.746;2022-08-18T06:07:16;20.60;1.00
13164;DHT22;6647;53.688;10.746;2022-08-18T06:08:42;20.70;1.00
13164;DHT22;6647;53.688;10.746;2022-08-18T06:10:07;20.70;1.00
13164;DHT22;6647;53.688;10.746;2022-08-18T06:11:28;20.70;1.00
13164;DHT22;6647;53.688;10.746;2022-08-18T06:12:53;20.70;1.00
13164;DHT22;6647;53.688;10.746;2022-08-18T06:14:15;20.70;1.00
13164;DHT22;6647;53.688;10.746;2022-08-18T06:17:23;20.80;1.00
13164;DHT22;6647;53.688;10.746;2022-08-18T06:21:24;20.80;1.00
13164;DHT22;6647;53.688;10.746;2022-08-18T06:28:08;20.90;1.00
13164;DHT22;6647;53.688;10.746;2022-08-18T06:31:22;21.00;1.00
13164;DHT22;6647;53.688;10.746;2022-08-18T06:34:29;21.00;1.00
13164;DHT22;6647;53.688;10.746;2022-08-18T06:35:59;21.10;1.00
13164;DHT22;6647;53.688;10.746;2022-08-18T06:37:32;21.10;1.00
13164;DHT22;6647;53.688;10.746;2022-08-18T06:39:13;21.20;1.00
13164;DHT22;6647;53.688;10.746;2022-08-18T06:40:36;21.20;1.00
13164;DHT22;6647;53.688;10.746;2022-08-18T06:41:57;21.20;1.00
13164;DHT22;6647;53.688;10.746;2022-08-18T06:43:18;21.20;1.00
13164;DHT22;6647;53.688;10.746;2022-08-18T06:44:45;21.20;1.00
13164;DHT22;6647;53.688;10.746;2022-08-18T06:46:16;21.30;1.00
13164;DHT22;6647;53.688;10.746;2022-08-18T06:47:49;21.30;1.00
13164;DHT22;6647;53.688;10.746;2022-08-18T06:49:20;21.40;1.00
13164;DHT22;6647;53.688;10.746;2022-08-18T06:50:48;21.40;1.00
13164;DHT22;6647;53.688;10.746;2022-08-18T06:52:35;21.40;1.00
13164;DHT22;6647;53.688;10.746;2022-08-18T06:54:47;21.50;1.00
13164;DHT22;6647;53.688;10.746;2022-08-18T06:55:44;21.50;1.00
13164;DHT22;6647;53.688;10.746;2022-08-18T06:57:30;21.50;1.00
13164;DHT22;6647;53.688;10.746;2022-08-18T06:58:52;21.60;1.00
13164;DHT22;6647;53.688;10.746;2022-08-18T07:01:38;21.60;1.00
13164;DHT22;6647;53.688;10.746;2022-08-18T07:03:11;21.70;1.00
13164;DHT22;6647;53.688;10.746;2022-08-18T07:04:40;21.70;1.00
13164;DHT22;6647;53.688;10.746;2022-08-18T07:06:09;21.70;1.00
13164;DHT22;6647;53.688;10.746;2022-08-18T07:07:38;21.80;1.00
13164;DHT22;6647;53.688;10.746;2022-08-18T07:09:20;21.80;1.00
13164;DHT22;6647;53.688;10.746;2022-08-18T07:10:49;21.90;1.00
13164;DHT22;6647;53.688;10.746;2022-08-18T07:12:18;21.90;1.00
13164;DHT22;6647;53.688;10.746;2022-08-18T07:13:41;21.90;1.00
13164;DHT22;6647;53.688;10.746;2022-08-18T07:15:05;21.90;1.00
13164;DHT22;6647;53.688;10.746;2022-08-18T07:16:33;21.90;1.00
13164;DHT22;6647;53.688;10.746;2022-08-18T07:18:02;21.90;1.00
13164;DHT22;6647;53.688;10.746;2022-08-18T07:19:28;21.90;1.00
13164;DHT22;6647;53.688;10.746;2022-08-18T07:20:53;21.90;1.00
13164;DHT22;6647;53.688;10.746;2022-08-18T07:22:15;22.00;1.00
13164;DHT22;6647;53.688;10.746;2022-08-18T07:23:39;21.90;1.00
13164;DHT22;6647;53.688;10.746;2022-08-18T07:25:02;21.90;1.00
13164;DHT22;6647;53.688;10.746;2022-08-18T07:26:24;21.90;1.00
13164;DHT22;6647;53.688;10.746;2022-08-18T07:27:47;21.90;1.00
13164;DHT22;6647;53.688;10.746;2022-08-18T07:29:14;21.90;1.00
13164;DHT22;6647;53.688;10.746;2022-08-18T07:30:36;21.90;1.00
13164;DHT22;6647;53.688;10.746;2022-08-18T07:32:02;21.90;1.00
13164;DHT22;6647;53.688;10.746;2022-08-18T07:33:24;21.90;1.00
13164;DHT22;6647;53.688;10.746;2022-08-18T07:34:50;21.90;1.00
13164;DHT22;6647;53.688;10.746;2022-08-18T07:36:14;21.90;1.00
13164;DHT22;6647;53.688;10.746;2022-08-18T07:39:59;21.90;1.00
13164;DHT22;6647;53.688;10.746;2022-08-18T07:41:39;21.90;1.00
13164;DHT22;6647;53.688;10.746;2022-08-18T07:43:05;21.80;1.00
13164;DHT22;6647;53.688;10.746;2022-08-18T07:44:45;21.80;1.00
13164;DHT22;6647;53.688;10.746;2022-08-18T07:46:15;21.80;1.00
13164;DHT22;6647;53.688;10.746;2022-08-18T07:49:23;21.80;1.00
13164;DHT22;6647;53.688;10.746;2022-08-18T07:53:00;21.80;1.00
13164;DHT22;6647;53.688;10.746;2022-08-18T07:54:34;21.80;1.00
13164;DHT22;6647;53.688;10.746;2022-08-18T07:56:02;21.80;1.00
13164;DHT22;6647;53.688;10.746;2022-08-18T07:59:05;21.90;1.00
13164;DHT22;6647;53.688;10.746;2022-08-18T08:00:36;21.90;1.00
13164;DHT22;6647;53.688;10.746;2022-08-18T08:02:12;21.90;1.00
13164;DHT22;6647;53.688;10.746;2022-08-18T08:05:05;22.00;1.00
13164;DHT22;6647;53.688;10.746;2022-08-18T08:06:40;22.00;1.00
13164;DHT22;6647;53.688;10.746;2022-08-18T08:13:02;22.20;1.00
13164;DHT22;6647;53.688;10.746;2022-08-18T08:14:41;22.30;1.00
13164;DHT22;6647;53.688;10.746;2022-08-18T08:20:07;22.40;1.00
13164;DHT22;6647;53.688;10.746;2022-08-18T08:21:36;22.40;1.00
13164;DHT22;6647;53.688;10.746;2022-08-18T08:25:00;22.50;1.00
13164;DHT22;6647;53.688;10.746;2022-08-18T08:29:47;22.50;1.00
13164;DHT22;6647;53.688;10.746;2022-08-18T08:34:52;22.50;1.00
13164;DHT22;6647;53.688;10.746;2022-08-18T08:36:20;22.50;1.00
13164;DHT22;6647;53.688;10.746;2022-08-18T08:37:57;22.60;1.00
13164;DHT22;6647;53.688;10.746;2022-08-18T08:39:29;22.70;1.00
13164;DHT22;6647;53.688;10.746;2022-08-18T08:40:58;22.80;1.00
13164;DHT22;6647;53.688;10.746;2022-08-18T08:42:40;22.80;1.00
13164;DHT22;6647;53.688;10.746;2022-08-18T08:44:13;22.90;1.00
13164;DHT22;6647;53.688;10.746;2022-08-18T08:49:27;22.90;1.00
13164;DHT22;6647;53.688;10.746;2022-08-18T08:50:57;22.90;1.00
13164;DHT22;6647;53.688;10.746;2022-08-18T08:54:41;22.90;1.00
13164;DHT22;6647;53.688;10.746;2022-08-18T08:56:07;23.00;1.00
13164;DHT22;6647;53.688;10.746;2022-08-18T08:57:34;23.00;1.00
13164;DHT22;6647;53.688;10.746;2022-08-18T08:59:01;23.00;1.00
13164;DHT22;6647;53.688;10.746;2022-08-18T09:00:23;23.10;1.00
13164;DHT22;6647;53.688;10.746;2022-08-18T09:05:03;23.10;1.00
13164;DHT22;6647;53.688;10.746;2022-08-18T09:06:38;23.10;1.00
13164;DHT22;6647;53.688;10.746;2022-08-18T09:08:26;23.20;1.00
13164;DHT22;6647;53.688;10.746;2022-08-18T09:15:30;23.30;1.00
13164;DHT22;6647;53.688;10.746;2022-08-18T09:20:35;23.20;1.00
13164;DHT22;6647;53.688;10.746;2022-08-18T09:23:45;23.20;1.00
13164;DHT22;6647;53.688;10.746;2022-08-18T09:29:57;23.40;1.00
13164;DHT22;6647;53.688;10.746;2022-08-18T09:31:19;23.40;1.00
13164;DHT22;6647;53.688;10.746;2022-08-18T09:34:36;23.50;1.00
13164;DHT22;6647;53.688;10.746;2022-08-18T09:37:55;23.70;1.00
13164;DHT22;6647;53.688;10.746;2022-08-18T09:39:39;23.60;1.00
13164;DHT22;6647;53.688;10.746;2022-08-18T09:41:26;23.60;1.00
13164;DHT22;6647;53.688;10.746;2022-08-18T09:43:13;23.50;1.00
13164;DHT22;6647;53.688;10.746;2022-08-18T09:46:08;23.50;1.00
13164;DHT22;6647;53.688;10.746;2022-08-18T09:50:55;23.50;1.00
13164;DHT22;6647;53.688;10.746;2022-08-18T09:58:19;23.50;1.00
13164;DHT22;6647;53.688;10.746;2022-08-18T10:04:24;23.50;1.00
13164;DHT22;6647;53.688;10.746;2022-08-18T10:06:13;23.50;1.00
13164;DHT22;6647;53.688;10.746;2022-08-18T10:07:37;23.40;1.00
13164;DHT22;6647;53.688;10.746;2022-08-18T10:09:13;23.40;1.00
13164;DHT22;6647;53.688;10.746;2022-08-18T10:10:52;23.30;1.00
13164;DHT22;6647;53.688;10.746;2022-08-18T10:14:23;23.40;1.00
13164;DHT22;6647;53.688;10.746;2022-08-18T10:15:56;23.40;1.00
13164;DHT22;6647;53.688;10.746;2022-08-18T10:17:41;23.40;1.00
13164;DHT22;6647;53.688;10.746;2022-08-18T10:19:24;23.40;1.00
13164;DHT22;6647;53.688;10.746;2022-08-18T10:22:42;23.30;1.00
13164;DHT22;6647;53.688;10.746;2022-08-18T10:25:37;23.10;1.00
13164;DHT22;6647;53.688;10.746;2022-08-18T10:27:01;23.20;1.00
13164;DHT22;6647;53.688;10.746;2022-08-18T10:30:45;23.10;1.00
13164;DHT22;6647;53.688;10.746;2022-08-18T10:33:59;23.00;1.00
13164;DHT22;6647;53.688;10.746;2022-08-18T10:36:58;23.00;1.00
13164;DHT22;6647;53.688;10.746;2022-08-18T10:38:34;23.00;1.00
13164;DHT22;6647;53.688;10.746;2022-08-18T10:40:03;23.00;1.00
13164;DHT22;6647;53.688;10.746;2022-08-18T10:41:28;22.90;1.00
13164;DHT22;6647;53.688;10.746;2022-08-18T10:43:08;22.90;1.00
13164;DHT22;6647;53.688;10.746;2022-08-18T10:44:33;22.90;1.00
13164;DHT22;6647;53.688;10.746;2022-08-18T10:45:57;22.90;1.00